createdAt,value
2023-05-21T00:00:15.209Z,17.70
2023-05-21T00:03:01.417Z,17.60
2023-05-21T00:05:47.228Z,17.60
2023-05-21T00:08:34.316Z,17.70
2023-05-21T00:11:22.411Z,17.90
2023-05-21T00:14:07.950Z,17.80
2023-05-21T00:16:53.656Z,17.90
2023-05-21T00:19:40.295Z,17.90
2023-05-21T00:22:25.828Z,17.60
2023-05-21T00:25:12.171Z,17.70
2023-05-21T00:27:59.363Z,17.90
2023-05-21T00:30:45.008Z,17.70
2023-05-21T00:33:30.951Z,17.50
2023-05-21T00:36:17.847Z,17.40
2023-05-21T00:39:04.425Z,17.50
2023-05-21T00:41:50.247Z,17.50
2023-05-21T00:44:37.474Z,17.60
2023-05-21T00:47:23.784Z,17.60
2023-05-21T00:50:10.906Z,17.50
2023-05-21T00:52:56.600Z,17.80
2023-05-21T00:55:42.613Z,17.80
2023-05-21T00:58:29.200Z,17.70
2023-05-21T01:01:18.338Z,17.70
2023-05-21T01:04:04.823Z,18.10
2023-05-21T01:06:50.701Z,17.90
2023-05-21T01:09:36.450Z,18.10
2023-05-21T01:12:23.891Z,18.30
2023-05-21T01:15:10.950Z,18.50
2023-05-21T01:17:58.321Z,18.40
2023-05-21T01:20:48.121Z,18.30
2023-05-21T01:23:35.811Z,18.50
2023-05-21T01:26:21.405Z,18.40
2023-05-21T01:29:07.467Z,18.60
2023-05-21T01:32:04.999Z,18.50
2023-05-21T01:34:56.833Z,18.60
2023-05-21T01:37:47.580Z,18.60
2023-05-21T01:40:41.843Z,18.70
2023-05-21T01:43:31.754Z,18.30
2023-05-21T01:46:21.179Z,18.40
2023-05-21T01:49:08.796Z,18.50
2023-05-21T01:51:54.917Z,18.60
2023-05-21T01:54:40.635Z,18.60
2023-05-21T01:57:27.674Z,18.70
2023-05-21T02:00:15.375Z,18.60
2023-05-21T02:03:04.972Z,18.50
2023-05-21T02:05:52.039Z,18.50
2023-05-21T02:08:38.596Z,18.60
2023-05-21T02:11:24.559Z,18.20
2023-05-21T02:14:14.030Z,18.00
2023-05-21T02:17:00.715Z,18.40
2023-05-21T02:19:46.736Z,17.80
2023-05-21T02:22:34.415Z,17.80
2023-05-21T02:25:20.216Z,17.80
2023-05-21T02:28:06.775Z,18.10
2023-05-21T02:30:54.159Z,18.10
2023-05-21T02:33:40.914Z,18.20
2023-05-21T02:36:28.786Z,17.80
2023-05-21T02:39:15.659Z,17.90
2023-05-21T02:42:01.584Z,18.00
2023-05-21T02:44:48.283Z,18.30
2023-05-21T02:47:35.730Z,17.60
2023-05-21T02:50:22.794Z,17.50
2023-05-21T02:53:16.450Z,17.70
2023-05-21T02:56:02.114Z,18.10
2023-05-21T02:58:47.842Z,17.90
2023-05-21T03:01:33.631Z,17.70
2023-05-21T03:04:21.866Z,17.50
2023-05-21T03:07:10.119Z,17.40
2023-05-21T03:09:55.881Z,17.50
2023-05-21T03:12:41.824Z,17.80
2023-05-21T03:15:33.214Z,18.00
2023-05-21T03:18:18.958Z,17.80
2023-05-21T03:21:06.332Z,17.90
2023-05-21T03:23:53.038Z,18.20
2023-05-21T03:26:39.021Z,18.20
2023-05-21T03:29:24.882Z,18.10
2023-05-21T03:32:10.856Z,18.30
2023-05-21T03:34:56.826Z,18.00
2023-05-21T03:37:44.351Z,18.10
2023-05-21T03:40:30.132Z,18.10
2023-05-21T03:43:16.436Z,18.20
2023-05-21T03:46:02.272Z,18.10
2023-05-21T03:49:06.495Z,18.10
2023-05-21T03:51:54.547Z,17.90
2023-05-21T03:54:41.647Z,18.10
2023-05-21T03:57:28.590Z,18.10
2023-05-21T04:00:15.871Z,18.40
2023-05-21T04:03:01.654Z,18.40
2023-05-21T04:05:47.685Z,18.40
2023-05-21T04:08:33.562Z,17.80
2023-05-21T04:11:20.919Z,17.60
2023-05-21T04:14:07.414Z,18.00
2023-05-21T04:16:53.227Z,18.10
2023-05-21T04:19:40.830Z,18.30
2023-05-21T04:22:27.158Z,18.10
2023-05-21T04:25:13.148Z,18.40
2023-05-21T04:28:00.466Z,18.50
2023-05-21T04:30:46.544Z,18.50
2023-05-21T04:33:32.444Z,18.30
2023-05-21T04:36:18.164Z,18.60
2023-05-21T04:39:06.323Z,18.60
2023-05-21T04:41:54.554Z,18.80
2023-05-21T04:44:44.274Z,18.80
2023-05-21T04:47:30.450Z,18.50
2023-05-21T04:50:16.169Z,18.60
2023-05-21T04:53:03.435Z,18.80
2023-05-21T04:55:49.214Z,18.40
2023-05-21T04:58:35.029Z,17.80
2023-05-21T05:01:27.015Z,17.90
2023-05-21T05:04:12.684Z,17.70
2023-05-21T05:07:01.252Z,17.50
2023-05-21T05:09:47.240Z,17.80
2023-05-21T05:12:33.326Z,17.80
2023-05-21T05:15:19.312Z,17.90
2023-05-21T05:18:08.699Z,18.20
2023-05-21T05:20:54.493Z,18.00
2023-05-21T05:23:40.507Z,18.10
2023-05-21T05:26:27.537Z,18.50
2023-05-21T05:29:13.929Z,18.80
2023-05-21T05:32:00.801Z,18.20
2023-05-21T05:34:48.196Z,18.10
2023-05-21T05:37:34.119Z,18.10
2023-05-21T05:40:20.174Z,17.90
2023-05-21T05:43:06.028Z,17.90
2023-05-21T05:45:51.753Z,17.70
2023-05-21T05:48:37.925Z,17.90
2023-05-21T05:51:26.527Z,18.20
2023-05-21T05:54:12.098Z,18.40
2023-05-21T05:56:57.838Z,18.20
2023-05-21T05:59:44.402Z,18.10
2023-05-21T06:02:31.390Z,18.20
2023-05-21T06:05:18.094Z,18.30
2023-05-21T06:08:05.812Z,18.40
2023-05-21T06:10:51.414Z,18.80
2023-05-21T06:13:37.234Z,17.90
2023-05-21T06:16:24.624Z,17.60
2023-05-21T06:19:11.823Z,17.50
2023-05-21T06:21:58.249Z,17.80
2023-05-21T06:24:46.182Z,17.90
2023-05-21T06:27:33.565Z,17.70
2023-05-21T06:30:20.398Z,18.20
2023-05-21T06:33:06.961Z,18.10
2023-05-21T06:35:52.717Z,18.00
2023-05-21T06:38:38.629Z,18.30
2023-05-21T06:41:26.946Z,18.70
2023-05-21T06:44:16.904Z,19.10
2023-05-21T06:47:22.951Z,19.00
2023-05-21T06:50:09.287Z,18.60
2023-05-21T06:52:55.592Z,18.30
2023-05-21T06:55:44.307Z,18.70
2023-05-21T06:58:38.427Z,19.10
2023-05-21T07:01:24.440Z,19.10
2023-05-21T07:04:10.165Z,19.60
2023-05-21T07:06:56.531Z,19.70
2023-05-21T07:09:43.386Z,20.10
2023-05-21T07:12:29.304Z,20.30
2023-05-21T07:15:17.623Z,20.60
2023-05-21T07:18:03.638Z,20.60
2023-05-21T07:20:49.457Z,21.30
2023-05-21T07:23:35.968Z,20.90
2023-05-21T07:26:21.742Z,20.90
2023-05-21T07:29:08.263Z,20.40
2023-05-21T07:31:55.876Z,21.20
2023-05-21T07:34:41.427Z,21.50
2023-05-21T07:37:27.839Z,22.90
2023-05-21T07:40:14.509Z,23.40
2023-05-21T07:43:01.650Z,22.90
2023-05-21T07:45:49.433Z,22.70
2023-05-21T07:48:36.861Z,23.30
2023-05-21T07:51:23.558Z,24.20
2023-05-21T07:54:09.385Z,24.30
2023-05-21T07:56:55.715Z,23.80
2023-05-21T08:00:14.847Z,24.30
2023-05-21T08:03:09.457Z,24.90
2023-05-21T08:05:56.727Z,24.60
2023-05-21T08:08:42.368Z,24.90
2023-05-21T08:11:28.562Z,24.70
2023-05-21T08:14:14.346Z,25.20
2023-05-21T08:17:00.205Z,24.90
2023-05-21T08:19:46.440Z,25.50
2023-05-21T08:22:33.605Z,25.90
2023-05-21T08:25:19.716Z,26.20
2023-05-21T08:28:05.982Z,27.10
2023-05-21T08:30:52.246Z,27.50
2023-05-21T08:33:49.708Z,26.80
2023-05-21T08:36:36.636Z,27.50
2023-05-21T08:39:28.824Z,28.10
2023-05-21T08:42:38.522Z,27.90
2023-05-21T08:45:25.911Z,27.40
2023-05-21T08:48:12.282Z,26.90
2023-05-21T08:51:01.186Z,27.80
2023-05-21T08:53:51.740Z,28.20
2023-05-21T08:56:45.715Z,28.20
2023-05-21T08:59:31.998Z,28.00
2023-05-21T09:02:18.710Z,27.80
2023-05-21T09:05:05.689Z,27.30
2023-05-21T09:08:01.155Z,26.30
2023-05-21T09:10:55.860Z,26.30
2023-05-21T09:13:49.163Z,26.80
2023-05-21T09:16:42.721Z,27.80
2023-05-21T09:19:30.238Z,27.00
2023-05-21T09:22:16.844Z,27.10
2023-05-21T09:25:06.709Z,26.80
2023-05-21T09:27:54.270Z,26.50
2023-05-21T09:30:46.511Z,26.50
2023-05-21T09:33:32.694Z,26.00
2023-05-21T09:36:20.710Z,26.00
2023-05-21T09:39:06.899Z,26.10
2023-05-21T09:41:52.808Z,26.40
2023-05-21T09:44:38.725Z,27.00
2023-05-21T09:47:26.006Z,26.60
2023-05-21T09:50:13.172Z,26.50
2023-05-21T09:52:58.979Z,26.30
2023-05-21T09:55:44.633Z,26.30
2023-05-21T09:58:30.535Z,26.40
2023-05-21T10:01:16.993Z,25.90
2023-05-21T10:04:07.550Z,26.30
2023-05-21T10:06:53.689Z,27.50
2023-05-21T10:09:40.181Z,28.00
2023-05-21T10:12:27.628Z,28.30
2023-05-21T10:15:20.745Z,28.20
2023-05-21T10:18:07.248Z,27.80
2023-05-21T10:20:55.257Z,28.00
2023-05-21T10:23:42.890Z,28.10
2023-05-21T10:26:30.046Z,28.40
2023-05-21T10:29:18.140Z,28.00
2023-05-21T10:32:06.700Z,28.10
2023-05-21T10:34:54.063Z,28.70
2023-05-21T10:37:43.407Z,28.30
2023-05-21T10:40:29.527Z,29.30
2023-05-21T10:43:41.301Z,29.80
2023-05-21T10:47:00.788Z,29.80
2023-05-21T10:49:59.349Z,30.30
2023-05-21T10:53:01.755Z,29.20
2023-05-21T10:55:58.692Z,29.10
2023-05-21T10:59:07.894Z,30.00
2023-05-21T11:01:55.272Z,29.20
2023-05-21T11:04:43.450Z,29.10
2023-05-21T11:07:56.379Z,27.70
2023-05-21T11:10:44.556Z,28.10
2023-05-21T11:13:45.590Z,28.60
2023-05-21T11:16:31.438Z,29.30
2023-05-21T11:19:18.553Z,29.80
2023-05-21T11:22:09.581Z,29.40
2023-05-21T11:25:03.995Z,29.90
2023-05-21T11:27:49.657Z,30.80
2023-05-21T11:30:36.195Z,31.10
2023-05-21T11:33:22.274Z,31.00
2023-05-21T11:36:12.211Z,31.60
2023-05-21T11:39:10.173Z,32.10
2023-05-21T11:42:01.767Z,31.30
2023-05-21T11:44:49.421Z,31.20
2023-05-21T11:47:35.056Z,31.40
2023-05-21T11:50:21.060Z,33.00
2023-05-21T11:53:09.073Z,33.20
2023-05-21T11:55:57.593Z,33.50
2023-05-21T11:58:45.128Z,34.20
2023-05-21T12:01:31.234Z,33.70
2023-05-21T12:04:17.757Z,32.80
2023-05-21T12:07:05.205Z,32.40
2023-05-21T12:09:51.816Z,32.50
2023-05-21T12:12:50.583Z,32.50
2023-05-21T12:15:41.661Z,32.10
2023-05-21T12:18:27.471Z,32.20
2023-05-21T12:21:13.480Z,32.10
2023-05-21T12:23:59.563Z,32.00
2023-05-21T12:26:46.481Z,32.20
2023-05-21T12:29:33.119Z,32.00
2023-05-21T12:32:21.395Z,31.90
2023-05-21T12:35:08.142Z,32.10
2023-05-21T12:37:54.088Z,32.40
2023-05-21T12:40:40.910Z,32.40
2023-05-21T12:43:31.772Z,32.20
2023-05-21T12:46:18.856Z,31.90
2023-05-21T12:49:05.998Z,31.30
2023-05-21T12:51:52.025Z,31.40
2023-05-21T12:54:39.523Z,31.40
2023-05-21T12:57:28.239Z,30.80
2023-05-21T13:00:14.379Z,30.60
2023-05-21T13:03:01.027Z,30.30
2023-05-21T13:05:48.250Z,29.90
2023-05-21T13:08:34.770Z,29.80
2023-05-21T13:11:21.223Z,30.10
2023-05-21T13:14:07.024Z,30.70
2023-05-21T13:16:52.723Z,31.10
2023-05-21T13:19:38.747Z,31.60
2023-05-21T13:22:25.975Z,32.40
2023-05-21T13:25:12.623Z,32.30
2023-05-21T13:28:02.990Z,31.10
2023-05-21T13:30:48.689Z,31.10
2023-05-21T13:33:34.629Z,30.50
2023-05-21T13:36:20.484Z,30.20
2023-05-21T13:39:08.200Z,30.20
2023-05-21T13:41:54.338Z,30.10
2023-05-21T13:44:40.294Z,30.20
2023-05-21T13:47:26.269Z,30.10
2023-05-21T13:50:13.012Z,29.80
2023-05-21T13:52:58.828Z,29.90
2023-05-21T13:55:46.085Z,30.10
2023-05-21T13:58:34.704Z,30.20
2023-05-21T14:01:20.769Z,30.10
2023-05-21T14:04:07.164Z,30.80
2023-05-21T14:06:53.205Z,31.00
2023-05-21T14:09:39.480Z,31.30
2023-05-21T14:12:27.119Z,31.70
2023-05-21T14:15:13.015Z,31.90
2023-05-21T14:17:58.743Z,31.80
2023-05-21T14:20:44.755Z,31.60
2023-05-21T14:23:30.640Z,31.40
2023-05-21T14:26:16.919Z,31.30
2023-05-21T14:29:04.174Z,30.60
2023-05-21T14:31:49.950Z,30.30
2023-05-21T14:34:36.060Z,30.50
2023-05-21T14:37:21.889Z,30.80
2023-05-21T14:40:09.133Z,30.80
2023-05-21T14:42:56.112Z,30.50
2023-05-21T14:45:43.015Z,30.50
2023-05-21T14:48:28.941Z,30.70
2023-05-21T14:51:15.015Z,30.60
2023-05-21T14:54:00.920Z,30.00
2023-05-21T14:56:46.888Z,30.10
2023-05-21T14:59:32.861Z,30.40
2023-05-21T15:02:20.277Z,30.90
2023-05-21T15:05:06.438Z,30.80
2023-05-21T15:07:52.244Z,30.20
2023-05-21T15:10:38.177Z,30.50
2023-05-21T15:13:24.117Z,30.80
2023-05-21T15:16:10.287Z,30.70
2023-05-21T15:18:57.769Z,31.00
2023-05-21T15:21:43.953Z,30.60
2023-05-21T15:24:29.573Z,30.10
2023-05-21T15:27:15.610Z,30.10
2023-05-21T15:30:02.212Z,29.90
2023-05-21T15:32:49.701Z,29.70
2023-05-21T15:35:37.317Z,29.70
2023-05-21T15:38:23.383Z,30.10
2023-05-21T15:41:09.268Z,30.40
2023-05-21T15:43:55.391Z,30.50
2023-05-21T15:46:41.658Z,30.40
2023-05-21T15:49:27.188Z,30.60
2023-05-21T15:52:15.080Z,30.70
2023-05-21T15:55:01.643Z,30.80
2023-05-21T15:57:47.457Z,30.70
2023-05-21T16:00:34.270Z,30.90
2023-05-21T16:03:20.708Z,30.70
2023-05-21T16:06:07.976Z,30.60
2023-05-21T16:08:55.374Z,30.40
2023-05-21T16:11:41.536Z,30.20
2023-05-21T16:14:29.329Z,30.20
2023-05-21T16:17:15.025Z,30.60
2023-05-21T16:20:00.814Z,30.40
2023-05-21T16:22:46.654Z,30.00
2023-05-21T16:25:36.177Z,30.00
2023-05-21T16:28:24.418Z,30.10
2023-05-21T16:31:12.564Z,30.30
2023-05-21T16:33:58.567Z,30.10
2023-05-21T16:36:44.612Z,30.30
2023-05-21T16:39:30.236Z,30.40
2023-05-21T16:42:17.350Z,30.30
2023-05-21T16:45:03.487Z,30.30
2023-05-21T16:47:49.936Z,30.40
2023-05-21T16:50:35.665Z,30.10
2023-05-21T16:53:21.871Z,30.00
2023-05-21T16:56:07.847Z,29.70
2023-05-21T16:58:55.350Z,29.60
2023-05-21T17:01:41.024Z,29.60
2023-05-21T17:04:26.719Z,29.10
2023-05-21T17:07:12.420Z,29.20
2023-05-21T17:09:58.107Z,29.00
2023-05-21T17:12:44.173Z,28.90
2023-05-21T17:15:31.277Z,28.90
2023-05-21T17:18:17.042Z,28.40
2023-05-21T17:21:03.127Z,28.20
2023-05-21T17:23:48.749Z,28.10
2023-05-21T17:26:34.499Z,28.00
2023-05-21T17:29:20.775Z,28.10
2023-05-21T17:32:08.151Z,27.30
2023-05-21T17:34:54.086Z,27.00
2023-05-21T17:37:40.100Z,26.70
2023-05-21T17:40:26.107Z,26.90
2023-05-21T17:43:12.093Z,26.50
2023-05-21T17:45:58.328Z,26.40
2023-05-21T17:48:45.515Z,26.40
2023-05-21T17:51:31.726Z,26.20
2023-05-21T17:54:17.577Z,26.10
2023-05-21T17:57:03.823Z,26.30
2023-05-21T17:59:50.041Z,26.30
2023-05-21T18:02:36.329Z,26.40
2023-05-21T18:05:23.700Z,26.80
2023-05-21T18:08:10.065Z,27.20
2023-05-21T18:10:56.012Z,27.40
2023-05-21T18:13:42.068Z,27.30
2023-05-21T18:16:30.216Z,27.00
2023-05-21T18:19:15.992Z,26.50
2023-05-21T18:22:04.440Z,26.60
2023-05-21T18:24:51.327Z,26.40
2023-05-21T18:27:37.280Z,26.10
2023-05-21T18:30:22.927Z,26.00
2023-05-21T18:33:09.312Z,26.10
2023-05-21T18:35:55.734Z,26.00
2023-05-21T18:38:43.236Z,26.10
2023-05-21T18:41:29.669Z,25.60
2023-05-21T18:44:15.545Z,25.70
2023-05-21T18:47:01.776Z,25.60
2023-05-21T18:49:47.861Z,25.30
2023-05-21T18:52:33.888Z,25.00
2023-05-21T18:55:21.413Z,24.90
2023-05-21T18:58:07.567Z,24.90
2023-05-21T19:00:53.462Z,24.60
2023-05-21T19:03:39.397Z,24.70
2023-05-21T19:06:27.668Z,24.90
2023-05-21T19:09:13.317Z,24.90
2023-05-21T19:12:00.981Z,24.60
2023-05-21T19:14:47.189Z,24.30
2023-05-21T19:17:35.025Z,24.10
2023-05-21T19:20:24.522Z,23.80
2023-05-21T19:23:10.777Z,23.70
2023-05-21T19:25:56.562Z,23.80
2023-05-21T19:28:44.653Z,23.60
2023-05-21T19:31:30.679Z,23.60
2023-05-21T19:34:16.713Z,23.40
2023-05-21T19:37:02.799Z,23.10
2023-05-21T19:39:50.141Z,23.10
2023-05-21T19:42:37.023Z,23.00
2023-05-21T19:45:25.353Z,22.80
2023-05-21T19:48:11.352Z,22.90
2023-05-21T19:50:57.237Z,22.70
2023-05-21T19:53:42.983Z,22.60
2023-05-21T19:56:28.889Z,22.60
2023-05-21T19:59:14.931Z,22.50
2023-05-21T20:02:01.979Z,22.30
2023-05-21T20:04:47.692Z,22.40
2023-05-21T20:07:33.541Z,22.30
2023-05-21T20:10:19.398Z,22.30
2023-05-21T20:13:05.486Z,22.30
2023-05-21T20:15:51.408Z,22.30
2023-05-21T20:18:38.851Z,22.00
2023-05-21T20:21:24.903Z,21.80
2023-05-21T20:24:11.338Z,21.70
2023-05-21T20:26:57.693Z,21.80
2023-05-21T20:29:43.506Z,21.80
2023-05-21T20:32:29.178Z,21.60
2023-05-21T20:35:16.921Z,21.70
2023-05-21T20:38:02.692Z,21.70
2023-05-21T20:40:49.131Z,21.80
2023-05-21T20:43:37.363Z,21.70
2023-05-21T20:46:22.942Z,21.50
2023-05-21T20:49:09.747Z,21.30
2023-05-21T20:51:56.927Z,21.20
2023-05-21T20:54:42.640Z,21.20
2023-05-21T20:57:28.700Z,21.20
2023-05-21T21:00:16.083Z,21.00
2023-05-21T21:03:03.805Z,21.00
2023-05-21T21:05:49.626Z,21.10
2023-05-21T21:08:40.157Z,20.90
2023-05-21T21:11:27.110Z,21.00
2023-05-21T21:14:13.793Z,20.80
2023-05-21T21:16:59.684Z,21.00
2023-05-21T21:19:45.378Z,20.60
2023-05-21T21:22:31.468Z,20.40
2023-05-21T21:25:18.693Z,20.40
2023-05-21T21:28:04.803Z,20.40
2023-05-21T21:30:50.670Z,20.60
2023-05-21T21:33:36.801Z,20.60
2023-05-21T21:36:22.636Z,20.40
2023-05-21T21:39:08.544Z,20.30
2023-05-21T21:41:55.866Z,19.80
2023-05-21T21:44:42.284Z,20.00
2023-05-21T21:47:28.140Z,20.30
2023-05-21T21:50:14.115Z,19.80
2023-05-21T21:53:01.236Z,19.90
2023-05-21T21:55:47.235Z,20.10
2023-05-21T21:58:34.295Z,20.10
2023-05-21T22:01:20.226Z,20.10
2023-05-21T22:04:06.215Z,20.30
2023-05-21T22:06:53.675Z,20.60
2023-05-21T22:09:39.594Z,20.50
2023-05-21T22:12:25.417Z,20.30
2023-05-21T22:15:18.935Z,20.30
2023-05-21T22:18:05.124Z,20.40
2023-05-21T22:20:52.504Z,20.30
2023-05-21T22:23:38.747Z,20.40
2023-05-21T22:26:24.507Z,20.60
2023-05-21T22:29:10.502Z,20.60
2023-05-21T22:31:57.758Z,20.30
2023-05-21T22:34:43.578Z,20.50
2023-05-21T22:37:29.547Z,20.30
2023-05-21T22:40:15.719Z,20.50
2023-05-21T22:43:02.856Z,20.40
2023-05-21T22:45:48.819Z,20.10
2023-05-21T22:48:37.270Z,20.00
2023-05-21T22:51:22.770Z,19.90
2023-05-21T22:54:08.446Z,19.80
2023-05-21T22:56:54.396Z,19.40
2023-05-21T22:59:39.981Z,19.40
2023-05-21T23:02:26.080Z,19.40
2023-05-21T23:05:13.528Z,20.10
2023-05-21T23:08:01.205Z,20.10
2023-05-21T23:10:47.141Z,20.40
2023-05-21T23:13:32.918Z,20.90
2023-05-21T23:16:18.746Z,20.70
2023-05-21T23:19:04.371Z,20.90
2023-05-21T23:21:52.771Z,21.10
2023-05-21T23:24:39.379Z,21.10
2023-05-21T23:27:25.406Z,21.20
2023-05-21T23:30:12.097Z,21.30
2023-05-21T23:32:58.227Z,21.30
2023-05-21T23:35:44.087Z,21.20
2023-05-21T23:38:31.030Z,21.30
2023-05-21T23:41:16.718Z,21.30
2023-05-21T23:44:02.800Z,21.20
2023-05-21T23:46:49.897Z,21.00
2023-05-21T23:49:35.815Z,20.80
2023-05-21T23:52:23.418Z,20.40
2023-05-21T23:55:12.559Z,20.50
2023-05-21T23:57:58.144Z,20.50
